createdAt,value
2018-03-20T00:00:56.882Z,-0.60
2018-03-20T00:03:31.467Z,-0.70
2018-03-20T00:06:07.747Z,-0.80
2018-03-20T00:08:37.778Z,-1.00
2018-03-20T00:11:07.251Z,-1.10
2018-03-20T00:13:36.639Z,-1.10
2018-03-20T00:16:06.114Z,-1.20
2018-03-20T00:18:35.339Z,-1.20
2018-03-20T00:21:04.876Z,-1.40
2018-03-20T00:23:36.150Z,-1.70
2018-03-20T00:26:05.752Z,-1.80
2018-03-20T00:28:35.241Z,-2.00
2018-03-20T00:31:04.650Z,-2.00
2018-03-20T00:33:34.335Z,-1.90
2018-03-20T00:36:03.618Z,-1.70
2018-03-20T00:38:32.943Z,-1.60
2018-03-20T00:41:02.058Z,-1.50
2018-03-20T00:43:31.181Z,-1.40
2018-03-20T00:46:00.462Z,-1.30
2018-03-20T00:48:29.562Z,-1.40
2018-03-20T00:50:58.655Z,-1.40
2018-03-20T00:53:28.549Z,-1.50
2018-03-20T00:55:57.693Z,-1.60
2018-03-20T00:58:26.812Z,-1.50
2018-03-20T01:00:55.930Z,-1.60
2018-03-20T01:03:25.811Z,-1.80
2018-03-20T01:05:54.955Z,-1.90
2018-03-20T01:08:24.848Z,-1.70
2018-03-20T01:10:54.767Z,-1.60
2018-03-20T01:13:23.905Z,-1.60
2018-03-20T01:15:54.016Z,-1.70
2018-03-20T01:18:23.115Z,-1.80
2018-03-20T01:20:52.222Z,-1.70
2018-03-20T01:23:22.191Z,-1.60
2018-03-20T01:25:52.113Z,-1.60
2018-03-20T01:28:21.247Z,-1.70
2018-03-20T01:30:50.336Z,-1.50
2018-03-20T01:33:19.416Z,-1.50
2018-03-20T01:35:48.522Z,-1.40
2018-03-20T01:38:17.673Z,-1.30
2018-03-20T01:40:47.510Z,-1.20
2018-03-20T01:43:20.196Z,-1.40
2018-03-20T01:45:49.280Z,-1.50
2018-03-20T01:48:18.440Z,-1.60
2018-03-20T01:50:47.568Z,-1.50
2018-03-20T01:53:19.626Z,-1.40
2018-03-20T01:55:48.742Z,-1.40
2018-03-20T01:58:17.858Z,-1.30
2018-03-20T02:00:46.966Z,-1.10
2018-03-20T02:03:16.992Z,-1.20
2018-03-20T02:05:46.062Z,-1.30
2018-03-20T02:08:15.178Z,-1.30
2018-03-20T02:10:45.044Z,-1.30
2018-03-20T02:13:14.192Z,-1.30
2018-03-20T02:15:43.326Z,-1.40
2018-03-20T02:18:12.471Z,-1.40
2018-03-20T02:20:41.560Z,-1.40
2018-03-20T02:23:10.657Z,-1.40
2018-03-20T02:25:39.776Z,-1.60
2018-03-20T02:28:08.918Z,-1.50
2018-03-20T02:30:38.028Z,-1.80
2018-03-20T02:33:07.154Z,-1.90
2018-03-20T02:35:37.352Z,-1.90
2018-03-20T02:38:07.423Z,-1.70
2018-03-20T02:40:36.521Z,-1.50
2018-03-20T02:43:08.735Z,-1.50
2018-03-20T02:45:37.779Z,-1.40
2018-03-20T02:48:06.856Z,-1.40
2018-03-20T02:50:35.912Z,-1.30
2018-03-20T02:53:05.929Z,-1.20
2018-03-20T02:55:35.009Z,-1.20
2018-03-20T02:58:06.195Z,-1.10
2018-03-20T03:00:35.256Z,-1.00
2018-03-20T03:03:04.349Z,-1.00
2018-03-20T03:05:33.487Z,-1.00
2018-03-20T03:08:02.639Z,-1.00
2018-03-20T03:10:31.741Z,-1.20
2018-03-20T03:13:00.777Z,-1.40
2018-03-20T03:15:29.864Z,-1.40
2018-03-20T03:17:59.682Z,-1.30
2018-03-20T03:20:28.764Z,-1.30
2018-03-20T03:22:57.819Z,-1.20
2018-03-20T03:25:27.815Z,-1.50
2018-03-20T03:27:56.882Z,-1.60
2018-03-20T03:30:26.024Z,-1.50
2018-03-20T03:32:55.096Z,-1.40
2018-03-20T03:35:25.082Z,-1.40
2018-03-20T03:37:54.173Z,-1.20
2018-03-20T03:40:23.204Z,-1.20
2018-03-20T03:42:53.373Z,-1.40
2018-03-20T03:45:22.398Z,-1.30
2018-03-20T03:47:51.534Z,-1.40
2018-03-20T03:50:20.693Z,-1.40
2018-03-20T03:52:49.748Z,-1.40
2018-03-20T03:55:20.677Z,-1.30
2018-03-20T03:57:49.796Z,-1.30
2018-03-20T04:00:18.843Z,-1.20
2018-03-20T04:02:47.926Z,-1.20
2018-03-20T04:05:16.988Z,-1.40
2018-03-20T04:07:46.108Z,-1.50
2018-03-20T04:10:15.172Z,-1.30
2018-03-20T04:12:45.352Z,-1.10
2018-03-20T04:15:14.434Z,-1.10
2018-03-20T04:17:43.547Z,-1.00
2018-03-20T04:20:12.620Z,-1.10
2018-03-20T04:22:41.678Z,-1.30
2018-03-20T04:25:10.927Z,-1.20
2018-03-20T04:27:39.971Z,-1.20
2018-03-20T04:30:09.017Z,-1.30
2018-03-20T04:32:38.172Z,-1.20
2018-03-20T04:35:07.319Z,-1.20
2018-03-20T04:37:36.377Z,-1.10
2018-03-20T04:40:05.467Z,-1.10
2018-03-20T04:42:34.539Z,-1.00
2018-03-20T04:45:03.656Z,-1.10
2018-03-20T04:47:32.715Z,-1.20
2018-03-20T04:50:01.797Z,-1.20
2018-03-20T04:52:30.890Z,-1.30
2018-03-20T04:55:00.760Z,-1.40
2018-03-20T04:57:29.856Z,-1.40
2018-03-20T04:59:58.938Z,-1.30
2018-03-20T05:02:28.020Z,-1.40
2018-03-20T05:04:57.063Z,-1.30
2018-03-20T05:07:26.147Z,-1.20
2018-03-20T05:09:57.191Z,-1.10
2018-03-20T05:12:26.312Z,-1.10
2018-03-20T05:14:55.399Z,-1.30
2018-03-20T05:17:24.430Z,-1.40
2018-03-20T05:19:57.454Z,-1.40
2018-03-20T05:22:31.862Z,-1.50
2018-03-20T05:25:00.973Z,-1.70
2018-03-20T05:27:30.023Z,-1.80
2018-03-20T05:29:59.099Z,-1.90
2018-03-20T05:32:28.164Z,-1.90
2018-03-20T05:34:57.263Z,-2.00
2018-03-20T05:37:26.313Z,-2.00
2018-03-20T05:39:55.392Z,-2.00
2018-03-20T05:42:24.429Z,-2.10
2018-03-20T05:44:53.501Z,-2.40
2018-03-20T05:47:28.029Z,-2.90
2018-03-20T05:50:02.798Z,-3.00
2018-03-20T05:52:32.632Z,-3.40
2018-03-20T05:55:01.697Z,-3.50
2018-03-20T05:57:31.550Z,-3.40
2018-03-20T06:00:00.623Z,-3.50
2018-03-20T06:02:29.658Z,-3.60
2018-03-20T06:04:59.259Z,-3.50
2018-03-20T06:07:29.346Z,-3.50
2018-03-20T06:09:58.479Z,-3.50
2018-03-20T06:12:27.519Z,-3.60
2018-03-20T06:14:57.854Z,-3.60
2018-03-20T06:17:28.084Z,-3.50
2018-03-20T06:19:57.204Z,-3.50
2018-03-20T06:22:26.302Z,-3.50
2018-03-20T06:24:55.355Z,-3.40
2018-03-20T06:27:24.455Z,-3.20
2018-03-20T06:29:57.159Z,-3.00
2018-03-20T06:32:26.266Z,-2.80
2018-03-20T06:34:55.355Z,-2.80
2018-03-20T06:37:24.398Z,-2.60
2018-03-20T06:39:53.462Z,-2.50
2018-03-20T06:42:26.884Z,-2.30
2018-03-20T06:44:55.944Z,-2.30
2018-03-20T06:47:24.992Z,-2.10
2018-03-20T06:49:54.169Z,-1.90
2018-03-20T06:52:23.218Z,-1.90
2018-03-20T06:54:52.283Z,-1.80
2018-03-20T06:57:21.397Z,-1.70
2018-03-20T06:59:51.270Z,-1.20
2018-03-20T07:02:20.297Z,-1.20
2018-03-20T07:04:49.369Z,-0.90
2018-03-20T07:07:18.417Z,-0.50
2018-03-20T07:09:47.525Z,0.00
2018-03-20T07:12:17.736Z,0.40
2018-03-20T07:14:46.815Z,0.60
2018-03-20T07:17:17.748Z,1.00
2018-03-20T07:19:46.827Z,1.30
2018-03-20T07:22:15.871Z,1.40
2018-03-20T07:24:44.944Z,1.60
2018-03-20T07:27:13.987Z,2.00
2018-03-20T07:29:43.058Z,2.50
2018-03-20T07:32:12.858Z,3.10
2018-03-20T07:34:42.713Z,3.60
2018-03-20T07:37:11.761Z,3.50
2018-03-20T07:39:41.594Z,3.90
2018-03-20T07:42:10.623Z,3.80
2018-03-20T07:44:39.803Z,4.30
2018-03-20T07:47:08.883Z,4.70
2018-03-20T07:49:37.931Z,4.90
2018-03-20T07:52:07.039Z,5.20
2018-03-20T07:54:39.758Z,5.30
2018-03-20T07:57:08.786Z,5.60
2018-03-20T07:59:37.844Z,5.60
2018-03-20T08:02:06.894Z,5.90
2018-03-20T08:04:35.986Z,6.10
2018-03-20T08:07:05.031Z,6.20
2018-03-20T08:09:34.100Z,6.30
2018-03-20T08:12:03.123Z,6.60
2018-03-20T08:14:32.213Z,7.10
2018-03-20T08:17:01.264Z,7.50
2018-03-20T08:19:30.362Z,7.70
2018-03-20T08:22:00.141Z,8.10
2018-03-20T08:24:29.177Z,8.00
2018-03-20T08:26:59.020Z,8.20
2018-03-20T08:29:28.052Z,8.10
2018-03-20T08:31:57.119Z,8.30
2018-03-20T08:34:30.738Z,8.80
2018-03-20T08:36:59.798Z,9.30
2018-03-20T08:39:28.838Z,9.80
2018-03-20T08:41:58.067Z,10.10
2018-03-20T08:44:27.126Z,10.50
2018-03-20T08:46:56.960Z,10.80
2018-03-20T08:49:27.203Z,11.30
2018-03-20T08:51:56.231Z,11.20
2018-03-20T08:54:25.265Z,11.80
2018-03-20T08:56:55.377Z,11.90
2018-03-20T08:59:25.182Z,12.10
2018-03-20T09:01:54.242Z,12.00
2018-03-20T09:04:23.283Z,12.00
2018-03-20T09:06:53.203Z,12.50
2018-03-20T09:09:23.006Z,12.60
2018-03-20T09:11:52.044Z,12.50
2018-03-20T09:14:21.241Z,12.90
2018-03-20T09:16:50.279Z,13.20
2018-03-20T09:19:19.323Z,13.40
2018-03-20T09:21:48.403Z,13.30
2018-03-20T09:24:17.579Z,13.60
2018-03-20T09:26:46.608Z,14.20
2018-03-20T09:29:15.682Z,14.60
2018-03-20T09:31:44.720Z,14.40
2018-03-20T09:34:13.811Z,14.00
2018-03-20T09:36:42.949Z,14.00
2018-03-20T09:39:11.998Z,14.30
2018-03-20T09:41:41.034Z,14.30
2018-03-20T09:44:10.103Z,14.00
2018-03-20T09:46:39.443Z,14.70
2018-03-20T09:49:08.505Z,15.00
2018-03-20T09:51:37.523Z,15.20
2018-03-20T09:54:07.372Z,14.80
2018-03-20T09:56:36.398Z,14.80
2018-03-20T09:59:05.458Z,14.30
2018-03-20T10:01:34.491Z,14.60
2018-03-20T10:04:04.511Z,14.60
2018-03-20T10:06:33.550Z,14.70
2018-03-20T10:09:03.041Z,14.60
2018-03-20T10:11:36.695Z,14.90
2018-03-20T10:14:07.072Z,15.50
2018-03-20T10:16:36.057Z,15.20
2018-03-20T10:19:05.081Z,15.40
2018-03-20T10:21:34.163Z,15.50
2018-03-20T10:24:03.256Z,15.90
2018-03-20T10:26:32.266Z,16.50
2018-03-20T10:29:01.429Z,16.80
2018-03-20T10:31:31.223Z,17.80
2018-03-20T10:34:00.246Z,17.80
2018-03-20T10:36:29.325Z,17.90
2018-03-20T10:38:59.213Z,18.40
2018-03-20T10:41:28.288Z,18.40
2018-03-20T10:43:57.323Z,18.00
2018-03-20T10:46:27.220Z,18.60
2018-03-20T10:48:56.311Z,18.50
2018-03-20T10:51:25.476Z,19.10
2018-03-20T10:53:54.595Z,18.90
2018-03-20T10:56:23.654Z,19.30
2018-03-20T10:58:52.863Z,19.60
2018-03-20T11:01:27.345Z,19.90
2018-03-20T11:03:56.433Z,19.30
2018-03-20T11:06:25.467Z,18.50
2018-03-20T11:08:54.518Z,18.30
2018-03-20T11:11:23.579Z,18.70
2018-03-20T11:13:52.611Z,19.10
2018-03-20T11:16:21.658Z,19.00
2018-03-20T11:18:50.695Z,18.70
2018-03-20T11:21:19.753Z,19.10
2018-03-20T11:23:48.786Z,19.70
2018-03-20T11:26:18.636Z,19.90
2018-03-20T11:28:47.691Z,19.80
2018-03-20T11:31:16.749Z,20.50
2018-03-20T11:33:45.822Z,20.10
2018-03-20T11:36:14.902Z,19.40
2018-03-20T11:38:43.951Z,19.60
2018-03-20T11:41:13.011Z,19.20
2018-03-20T11:43:42.044Z,20.00
2018-03-20T11:46:11.154Z,20.20
2018-03-20T11:48:40.945Z,19.00
2018-03-20T11:51:10.000Z,18.90
2018-03-20T11:53:39.067Z,19.50
2018-03-20T11:56:08.793Z,19.00
2018-03-20T11:58:37.999Z,19.50
2018-03-20T12:01:07.261Z,19.20
2018-03-20T12:03:37.055Z,18.70
2018-03-20T12:06:06.169Z,18.60
2018-03-20T12:08:50.065Z,17.20
2018-03-20T12:11:19.166Z,15.90
2018-03-20T12:13:48.268Z,14.90
2018-03-20T12:16:17.320Z,14.60
2018-03-20T12:18:46.405Z,14.50
2018-03-20T12:21:15.486Z,15.20
2018-03-20T12:23:44.563Z,15.90
2018-03-20T12:26:13.695Z,16.20
2018-03-20T12:28:42.772Z,18.10
2018-03-20T12:31:12.567Z,20.50
2018-03-20T12:33:42.426Z,21.30
2018-03-20T12:36:11.459Z,21.20
2018-03-20T12:38:40.525Z,21.60
2018-03-20T12:41:09.563Z,21.80
2018-03-20T12:43:39.405Z,19.90
2018-03-20T12:46:08.504Z,19.80
2018-03-20T12:48:37.701Z,19.00
2018-03-20T12:51:06.788Z,16.40
2018-03-20T12:53:37.794Z,14.90
2018-03-20T12:56:07.681Z,12.60
2018-03-20T12:58:36.783Z,12.50
2018-03-20T13:01:05.858Z,11.70
2018-03-20T13:03:34.920Z,11.10
2018-03-20T13:06:04.096Z,10.70
2018-03-20T13:08:33.135Z,9.80
2018-03-20T13:11:02.219Z,8.70
2018-03-20T13:13:31.266Z,8.70
2018-03-20T13:16:00.297Z,8.40
2018-03-20T13:18:29.379Z,7.80
2018-03-20T13:20:58.410Z,7.00
2018-03-20T13:23:27.649Z,7.00
2018-03-20T13:25:56.648Z,6.90
2018-03-20T13:28:25.761Z,6.80
2018-03-20T13:30:56.017Z,6.70
2018-03-20T13:33:25.198Z,6.30
2018-03-20T13:35:54.224Z,5.90
2018-03-20T13:38:23.287Z,6.10
2018-03-20T13:40:52.331Z,5.90
2018-03-20T13:43:21.383Z,6.10
2018-03-20T13:45:50.395Z,6.00
2018-03-20T13:48:19.427Z,5.70
2018-03-20T13:50:52.604Z,5.40
2018-03-20T13:53:23.435Z,5.30
2018-03-20T13:55:52.526Z,5.20
2018-03-20T13:58:21.599Z,4.90
2018-03-20T14:00:50.643Z,4.60
2018-03-20T14:03:19.678Z,4.70
2018-03-20T14:05:48.832Z,4.70
2018-03-20T14:08:17.896Z,4.40
2018-03-20T14:10:46.923Z,4.20
2018-03-20T14:13:16.739Z,4.00
2018-03-20T14:15:46.520Z,3.70
2018-03-20T14:18:15.541Z,3.70
2018-03-20T14:20:44.694Z,3.50
2018-03-20T14:23:14.545Z,3.50
2018-03-20T14:25:44.932Z,3.30
2018-03-20T14:28:14.053Z,3.30
2018-03-20T14:34:21.174Z,3.50
2018-03-20T14:36:50.934Z,3.60
2018-03-20T14:39:20.595Z,3.70
2018-03-20T14:41:49.848Z,3.70
2018-03-20T14:44:19.184Z,3.70
2018-03-20T14:46:48.659Z,3.80
2018-03-20T14:49:18.068Z,3.80
2018-03-20T14:51:47.272Z,3.60
2018-03-20T14:54:16.472Z,3.50
2018-03-20T14:56:46.262Z,3.00
2018-03-20T14:59:16.941Z,2.70
2018-03-20T15:01:49.251Z,2.90
2018-03-20T15:04:18.506Z,2.90
2018-03-20T15:06:48.051Z,2.90
2018-03-20T15:09:21.315Z,3.20
2018-03-20T15:11:52.102Z,3.20
2018-03-20T15:14:21.259Z,3.10
2018-03-20T15:16:50.390Z,3.10
2018-03-20T15:19:20.420Z,3.10
2018-03-20T15:21:51.064Z,2.80
2018-03-20T15:24:20.943Z,2.70
2018-03-20T15:26:50.235Z,2.60
2018-03-20T15:29:19.536Z,2.30
2018-03-20T15:31:49.364Z,2.20
2018-03-20T15:34:18.682Z,2.10
2018-03-20T15:36:50.787Z,1.90
2018-03-20T15:39:20.220Z,1.90
2018-03-20T15:41:49.442Z,1.70
2018-03-20T15:44:18.745Z,1.50
2018-03-20T15:46:48.204Z,1.50
2018-03-20T15:49:17.363Z,1.50
2018-03-20T15:51:46.384Z,1.40
2018-03-20T15:54:15.547Z,1.30
2018-03-20T15:56:44.633Z,1.30
2018-03-20T15:59:13.980Z,1.00
2018-03-20T16:01:43.050Z,1.00
2018-03-20T16:04:12.070Z,1.10
2018-03-20T16:06:41.219Z,1.10
2018-03-20T16:09:10.407Z,1.20
2018-03-20T16:11:39.791Z,1.30
2018-03-20T16:14:08.964Z,1.30
2018-03-20T16:16:39.132Z,1.30
2018-03-20T16:19:08.609Z,1.30
2018-03-20T16:21:37.723Z,1.60
2018-03-20T16:24:06.985Z,1.80
2018-03-20T16:26:36.185Z,1.70
2018-03-20T16:29:05.399Z,1.60
2018-03-20T16:31:38.053Z,1.70
2018-03-20T16:34:07.250Z,1.50
2018-03-20T16:36:36.557Z,1.50
2018-03-20T16:39:05.888Z,1.30
2018-03-20T16:41:34.988Z,1.30
2018-03-20T16:44:04.196Z,1.30
2018-03-20T16:46:33.350Z,1.40
2018-03-20T16:49:02.729Z,1.50
2018-03-20T16:51:32.245Z,1.60
2018-03-20T16:54:01.436Z,1.60
2018-03-20T16:56:30.671Z,1.60
2018-03-20T16:59:00.643Z,1.60
2018-03-20T17:01:33.271Z,1.50
2018-03-20T17:04:06.079Z,1.70
2018-03-20T17:06:40.012Z,1.80
2018-03-20T17:09:09.528Z,1.80
2018-03-20T17:11:39.020Z,1.60
2018-03-20T17:14:09.072Z,1.60
2018-03-20T17:16:39.576Z,1.60
2018-03-20T17:19:08.774Z,1.50
2018-03-20T17:21:38.972Z,1.20
2018-03-20T17:24:09.446Z,1.00
2018-03-20T17:26:41.260Z,1.10
2018-03-20T17:29:14.067Z,1.20
2018-03-20T17:31:44.441Z,1.30
2018-03-20T17:34:14.471Z,1.50
2018-03-20T17:36:44.000Z,1.50
2018-03-20T17:39:14.350Z,1.60
2018-03-20T17:41:48.070Z,1.60
2018-03-20T17:44:21.695Z,1.70
2018-03-20T17:47:00.201Z,1.80
2018-03-20T17:49:30.313Z,1.90
2018-03-20T17:52:03.581Z,1.80
2018-03-20T17:54:32.799Z,1.80
2018-03-20T17:57:02.336Z,1.90
2018-03-20T17:59:32.208Z,2.00
2018-03-20T18:02:01.452Z,1.90
2018-03-20T18:04:31.707Z,1.90
2018-03-20T18:07:01.035Z,2.00
2018-03-20T18:09:30.284Z,1.80
2018-03-20T18:11:59.607Z,1.80
2018-03-20T18:14:29.625Z,1.90
2018-03-20T18:16:59.478Z,1.90
2018-03-20T18:19:28.753Z,1.80
2018-03-20T18:21:58.733Z,1.40
2018-03-20T18:24:28.102Z,1.40
2018-03-20T18:26:57.763Z,1.30
2018-03-20T18:29:26.884Z,1.40
2018-03-20T18:31:56.336Z,1.40
2018-03-20T18:34:28.423Z,1.50
2018-03-20T18:37:01.030Z,1.40
2018-03-20T18:39:30.475Z,1.30
2018-03-20T18:41:59.851Z,1.20
2018-03-20T18:44:28.949Z,1.30
2018-03-20T18:46:57.983Z,1.30
2018-03-20T18:49:27.179Z,1.30
2018-03-20T18:51:56.354Z,1.40
2018-03-20T18:54:26.140Z,1.40
2018-03-20T18:56:55.232Z,1.40
2018-03-20T18:59:24.317Z,1.50
2018-03-20T19:01:53.487Z,1.60
2018-03-20T19:04:23.733Z,1.60
2018-03-20T19:06:52.796Z,1.70
2018-03-20T19:09:21.907Z,1.70
2018-03-20T19:11:51.019Z,1.60
2018-03-20T19:14:20.509Z,1.70
2018-03-20T19:16:50.738Z,1.70
2018-03-20T19:19:19.857Z,1.80
2018-03-20T19:21:48.947Z,1.90
2018-03-20T19:24:18.099Z,2.00
2018-03-20T19:26:47.553Z,1.80
2018-03-20T19:29:16.690Z,1.90
2018-03-20T19:31:45.770Z,2.00
2018-03-20T19:34:14.959Z,2.20
2018-03-20T19:36:44.148Z,2.10
2018-03-20T19:39:13.266Z,2.20
2018-03-20T19:41:42.396Z,2.20
2018-03-20T19:44:11.495Z,2.20
2018-03-20T19:46:40.515Z,2.20
2018-03-20T19:49:09.536Z,2.10
2018-03-20T19:51:38.588Z,2.10
2018-03-20T19:54:07.834Z,2.10
2018-03-20T19:56:36.862Z,2.10
2018-03-20T19:59:05.908Z,2.10
2018-03-20T20:01:34.932Z,2.20
2018-03-20T20:04:04.010Z,2.20
2018-03-20T20:06:33.409Z,2.10
2018-03-20T20:09:03.165Z,1.90
2018-03-20T20:11:32.187Z,1.80
2018-03-20T20:14:02.140Z,1.80
2018-03-20T20:16:31.195Z,1.70
2018-03-20T20:19:01.358Z,1.90
2018-03-20T20:21:30.442Z,1.80
2018-03-20T20:23:59.487Z,2.00
2018-03-20T20:26:28.519Z,1.80
2018-03-20T20:28:57.602Z,1.90
2018-03-20T20:31:28.015Z,1.80
2018-03-20T20:33:57.129Z,1.70
2018-03-20T20:36:27.070Z,1.70
2018-03-20T20:38:56.552Z,1.70
2018-03-20T20:41:25.685Z,1.80
2018-03-20T20:43:54.719Z,1.80
2018-03-20T20:46:24.523Z,1.60
2018-03-20T20:48:54.434Z,1.70
2018-03-20T20:51:26.811Z,1.60
2018-03-20T20:53:55.872Z,1.70
2018-03-20T20:56:24.935Z,1.80
2018-03-20T20:58:54.023Z,1.80
2018-03-20T21:01:23.078Z,1.90
2018-03-20T21:03:52.956Z,2.00
2018-03-20T21:06:23.030Z,2.00
2018-03-20T21:08:52.272Z,1.90
2018-03-20T21:11:22.224Z,1.80
2018-03-20T21:13:51.370Z,1.80
2018-03-20T21:16:20.552Z,1.80
2018-03-20T21:18:49.804Z,1.70
2018-03-20T21:21:25.409Z,1.70
2018-03-20T21:23:55.583Z,1.60
2018-03-20T21:26:25.632Z,1.80
2018-03-20T21:28:55.300Z,1.70
2018-03-20T21:31:24.703Z,1.70
2018-03-20T21:33:53.788Z,1.80
2018-03-20T21:36:24.412Z,1.90
2018-03-20T21:38:53.589Z,2.00
2018-03-20T21:41:26.481Z,1.90
2018-03-20T21:43:55.544Z,1.80
2018-03-20T21:46:30.066Z,1.70
2018-03-20T21:49:00.067Z,1.70
2018-03-20T21:51:29.449Z,1.60
2018-03-20T21:53:59.602Z,1.50
2018-03-20T21:56:28.701Z,1.40
2018-03-20T21:58:57.845Z,1.40
2018-03-20T22:01:26.920Z,1.70
2018-03-20T22:03:56.178Z,1.80
2018-03-20T22:06:25.502Z,2.10
2018-03-20T22:08:54.693Z,2.10
2018-03-20T22:11:23.967Z,2.00
2018-03-20T22:13:53.362Z,2.10
2018-03-20T22:16:22.519Z,2.10
2018-03-20T22:18:51.530Z,1.70
2018-03-20T22:21:20.581Z,1.80
2018-03-20T22:23:49.647Z,1.70
2018-03-20T22:26:18.678Z,1.40
2018-03-20T22:28:47.678Z,1.50
2018-03-20T22:31:17.787Z,1.80
2018-03-20T22:33:46.807Z,1.70
2018-03-20T22:36:19.153Z,1.80
2018-03-20T22:38:48.176Z,1.90
2018-03-20T22:41:17.993Z,1.60
2018-03-20T22:43:47.019Z,1.50
2018-03-20T22:46:16.082Z,1.60
2018-03-20T22:48:45.098Z,1.80
2018-03-20T22:51:15.223Z,1.60
2018-03-20T22:53:44.243Z,1.50
2018-03-20T22:56:13.274Z,1.40
2018-03-20T22:58:42.331Z,1.50
2018-03-20T23:01:11.356Z,1.60
2018-03-20T23:03:41.489Z,1.70
2018-03-20T23:06:10.497Z,1.60
2018-03-20T23:08:39.550Z,1.70
2018-03-20T23:11:09.330Z,1.60
2018-03-20T23:13:38.398Z,1.60
2018-03-20T23:16:07.422Z,1.50
2018-03-20T23:18:36.479Z,1.70
2018-03-20T23:21:05.488Z,1.70
2018-03-20T23:23:34.550Z,1.60
2018-03-20T23:26:03.567Z,1.70
2018-03-20T23:28:32.627Z,1.80
2018-03-20T23:31:01.652Z,1.90
2018-03-20T23:33:31.903Z,2.00
2018-03-20T23:36:00.967Z,1.90
2018-03-20T23:38:30.018Z,1.90
2018-03-20T23:40:59.085Z,1.70
2018-03-20T23:43:28.882Z,1.20
2018-03-20T23:45:57.915Z,1.10
2018-03-20T23:48:27.012Z,1.20
2018-03-20T23:50:56.022Z,1.20
2018-03-20T23:53:25.045Z,1.30
2018-03-20T23:55:54.113Z,1.40
2018-03-20T23:58:23.138Z,1.20
